sensor_id;sensor_type;location;lat;lon;timestamp;P1;durP1;ratioP1;P2;durP2;ratioP2
72095;SDS011;59968;51.084;16.748;2022-09-29T00:01:37;5.30;;;3.00;;
72095;SDS011;59968;51.084;16.748;2022-09-29T00:04:05;6.60;;;3.30;;
72095;SDS011;59968;51.084;16.748;2022-09-29T00:06:33;6.70;;;3.10;;
72095;SDS011;59968;51.084;16.748;2022-09-29T00:09:01;6.10;;;3.20;;
72095;SDS011;59968;51.084;16.748;2022-09-29T00:11:29;6.20;;;3.00;;
72095;SDS011;59968;51.084;16.748;2022-09-29T00:13:58;7.40;;;3.10;;
72095;SDS011;59968;51.084;16.748;2022-09-29T00:16:26;7.50;;;2.80;;
72095;SDS011;59968;51.084;16.748;2022-09-29T00:18:57;7.10;;;3.20;;
72095;SDS011;59968;51.084;16.748;2022-09-29T00:21:26;9.40;;;3.10;;
72095;SDS011;59968;51.084;16.748;2022-09-29T00:23:54;7.50;;;3.50;;
72095;SDS011;59968;51.084;16.748;2022-09-29T00:26:28;6.60;;;3.30;;
72095;SDS011;59968;51.084;16.748;2022-09-29T00:28:57;7.70;;;3.30;;
72095;SDS011;59968;51.084;16.748;2022-09-29T00:31:29;6.60;;;3.20;;
72095;SDS011;59968;51.084;16.748;2022-09-29T00:34:00;7.70;;;3.30;;
72095;SDS011;59968;51.084;16.748;2022-09-29T00:36:29;7.10;;;3.30;;
72095;SDS011;59968;51.084;16.748;2022-09-29T00:38:58;6.90;;;3.00;;
72095;SDS011;59968;51.084;16.748;2022-09-29T00:41:29;9.80;;;4.30;;
72095;SDS011;59968;51.084;16.748;2022-09-29T00:46:42;18.70;;;8.30;;
72095;SDS011;59968;51.084;16.748;2022-09-29T00:49:19;28.00;;;10.90;;
72095;SDS011;59968;51.084;16.748;2022-09-29T00:54:36;16.90;;;7.30;;
72095;SDS011;59968;51.084;16.748;2022-09-29T00:57:11;10.30;;;4.70;;
72095;SDS011;59968;51.084;16.748;2022-09-29T01:02:38;7.40;;;3.70;;
72095;SDS011;59968;51.084;16.748;2022-09-29T01:05:12;8.20;;;3.70;;
72095;SDS011;59968;51.084;16.748;2022-09-29T01:07:47;6.60;;;2.90;;
72095;SDS011;59968;51.084;16.748;2022-09-29T01:10:17;6.80;;;3.60;;
72095;SDS011;59968;51.084;16.748;2022-09-29T01:12:47;8.40;;;3.70;;
72095;SDS011;59968;51.084;16.748;2022-09-29T01:15:17;9.80;;;3.80;;
72095;SDS011;59968;51.084;16.748;2022-09-29T01:17:47;8.50;;;4.10;;
72095;SDS011;59968;51.084;16.748;2022-09-29T01:20:17;9.60;;;3.70;;
72095;SDS011;59968;51.084;16.748;2022-09-29T01:31:46;11.10;;;4.10;;
72095;SDS011;59968;51.084;16.748;2022-09-29T01:34:39;7.70;;;3.90;;
72095;SDS011;59968;51.084;16.748;2022-09-29T01:43:23;6.50;;;2.90;;
72095;SDS011;59968;51.084;16.748;2022-09-29T01:46:22;7.90;;;3.60;;
72095;SDS011;59968;51.084;16.748;2022-09-29T01:49:00;7.90;;;3.60;;
72095;SDS011;59968;51.084;16.748;2022-09-29T01:51:35;7.70;;;3.90;;
72095;SDS011;59968;51.084;16.748;2022-09-29T01:54:10;8.50;;;3.30;;
72095;SDS011;59968;51.084;16.748;2022-09-29T01:56:43;8.20;;;3.60;;
72095;SDS011;59968;51.084;16.748;2022-09-29T01:59:20;8.50;;;3.70;;
72095;SDS011;59968;51.084;16.748;2022-09-29T02:01:56;10.60;;;3.90;;
72095;SDS011;59968;51.084;16.748;2022-09-29T02:04:30;6.90;;;3.50;;
72095;SDS011;59968;51.084;16.748;2022-09-29T02:07:07;7.00;;;3.60;;
72095;SDS011;59968;51.084;16.748;2022-09-29T02:09:45;8.20;;;3.80;;
72095;SDS011;59968;51.084;16.748;2022-09-29T02:12:21;9.10;;;4.50;;
72095;SDS011;59968;51.084;16.748;2022-09-29T02:15:05;11.50;;;5.80;;
72095;SDS011;59968;51.084;16.748;2022-09-29T02:17:37;9.30;;;4.90;;
72095;SDS011;59968;51.084;16.748;2022-09-29T02:20:09;10.50;;;4.40;;
72095;SDS011;59968;51.084;16.748;2022-09-29T02:22:39;10.40;;;4.70;;
72095;SDS011;59968;51.084;16.748;2022-09-29T02:25:11;8.20;;;4.20;;
72095;SDS011;59968;51.084;16.748;2022-09-29T02:27:44;10.30;;;4.70;;
72095;SDS011;59968;51.084;16.748;2022-09-29T02:30:17;9.90;;;4.70;;
72095;SDS011;59968;51.084;16.748;2022-09-29T02:32:46;10.90;;;5.00;;
72095;SDS011;59968;51.084;16.748;2022-09-29T02:35:17;9.90;;;5.40;;
72095;SDS011;59968;51.084;16.748;2022-09-29T02:41:00;10.10;;;4.80;;
72095;SDS011;59968;51.084;16.748;2022-09-29T02:49:19;9.40;;;4.10;;
72095;SDS011;59968;51.084;16.748;2022-09-29T02:51:54;9.60;;;4.40;;
72095;SDS011;59968;51.084;16.748;2022-09-29T02:54:46;8.90;;;5.00;;
72095;SDS011;59968;51.084;16.748;2022-09-29T02:57:27;9.30;;;4.60;;
72095;SDS011;59968;51.084;16.748;2022-09-29T03:00:12;8.50;;;4.40;;
72095;SDS011;59968;51.084;16.748;2022-09-29T03:02:45;10.20;;;4.80;;
72095;SDS011;59968;51.084;16.748;2022-09-29T03:05:15;8.10;;;4.20;;
72095;SDS011;59968;51.084;16.748;2022-09-29T03:07:50;9.20;;;3.90;;
72095;SDS011;59968;51.084;16.748;2022-09-29T03:10:18;7.20;;;4.00;;
72095;SDS011;59968;51.084;16.748;2022-09-29T03:12:48;7.70;;;4.10;;
72095;SDS011;59968;51.084;16.748;2022-09-29T03:15:16;7.30;;;4.00;;
72095;SDS011;59968;51.084;16.748;2022-09-29T03:17:45;7.60;;;4.20;;
72095;SDS011;59968;51.084;16.748;2022-09-29T03:20:16;7.50;;;4.10;;
72095;SDS011;59968;51.084;16.748;2022-09-29T03:22:44;7.50;;;3.90;;
72095;SDS011;59968;51.084;16.748;2022-09-29T03:25:12;8.50;;;3.70;;
72095;SDS011;59968;51.084;16.748;2022-09-29T03:27:44;8.30;;;4.20;;
72095;SDS011;59968;51.084;16.748;2022-09-29T03:30:13;9.10;;;4.20;;
72095;SDS011;59968;51.084;16.748;2022-09-29T03:32:42;7.60;;;3.90;;
72095;SDS011;59968;51.084;16.748;2022-09-29T03:35:11;8.30;;;4.10;;
72095;SDS011;59968;51.084;16.748;2022-09-29T03:37:42;10.10;;;4.60;;
72095;SDS011;59968;51.084;16.748;2022-09-29T03:40:10;7.90;;;4.00;;
72095;SDS011;59968;51.084;16.748;2022-09-29T03:42:39;9.50;;;4.00;;
72095;SDS011;59968;51.084;16.748;2022-09-29T03:45:07;8.80;;;4.40;;
72095;SDS011;59968;51.084;16.748;2022-09-29T03:47:36;7.40;;;4.10;;
72095;SDS011;59968;51.084;16.748;2022-09-29T03:50:04;7.40;;;4.00;;
72095;SDS011;59968;51.084;16.748;2022-09-29T03:52:33;8.50;;;4.00;;
72095;SDS011;59968;51.084;16.748;2022-09-29T03:55:04;6.70;;;3.80;;
72095;SDS011;59968;51.084;16.748;2022-09-29T03:57:33;7.20;;;3.90;;
72095;SDS011;59968;51.084;16.748;2022-09-29T04:00:04;7.00;;;3.80;;
72095;SDS011;59968;51.084;16.748;2022-09-29T04:02:34;7.90;;;3.70;;
72095;SDS011;59968;51.084;16.748;2022-09-29T04:05:03;7.30;;;3.90;;
72095;SDS011;59968;51.084;16.748;2022-09-29T04:07:37;6.80;;;3.90;;
72095;SDS011;59968;51.084;16.748;2022-09-29T04:10:08;7.70;;;4.10;;
72095;SDS011;59968;51.084;16.748;2022-09-29T04:12:38;7.20;;;3.90;;
72095;SDS011;59968;51.084;16.748;2022-09-29T04:15:07;7.40;;;4.00;;
72095;SDS011;59968;51.084;16.748;2022-09-29T04:17:35;6.40;;;3.40;;
72095;SDS011;59968;51.084;16.748;2022-09-29T04:20:05;7.30;;;3.90;;
72095;SDS011;59968;51.084;16.748;2022-09-29T04:22:37;7.70;;;3.80;;
72095;SDS011;59968;51.084;16.748;2022-09-29T04:25:05;6.70;;;3.90;;
72095;SDS011;59968;51.084;16.748;2022-09-29T04:27:42;7.40;;;3.80;;
72095;SDS011;59968;51.084;16.748;2022-09-29T04:30:11;6.00;;;3.30;;
72095;SDS011;59968;51.084;16.748;2022-09-29T04:32:39;8.00;;;3.60;;
72095;SDS011;59968;51.084;16.748;2022-09-29T04:35:08;5.60;;;3.30;;
72095;SDS011;59968;51.084;16.748;2022-09-29T04:37:38;7.20;;;4.60;;
72095;SDS011;59968;51.084;16.748;2022-09-29T04:40:06;10.50;;;4.50;;
72095;SDS011;59968;51.084;16.748;2022-09-29T04:42:38;7.80;;;4.50;;
72095;SDS011;59968;51.084;16.748;2022-09-29T04:45:07;10.90;;;4.80;;
72095;SDS011;59968;51.084;16.748;2022-09-29T04:47:36;7.90;;;4.60;;
72095;SDS011;59968;51.084;16.748;2022-09-29T04:50:04;7.80;;;4.00;;
72095;SDS011;59968;51.084;16.748;2022-09-29T04:52:33;8.10;;;4.30;;
72095;SDS011;59968;51.084;16.748;2022-09-29T04:55:05;8.40;;;4.00;;
72095;SDS011;59968;51.084;16.748;2022-09-29T04:57:40;7.30;;;4.20;;
72095;SDS011;59968;51.084;16.748;2022-09-29T05:00:10;7.20;;;4.30;;
72095;SDS011;59968;51.084;16.748;2022-09-29T05:02:40;7.70;;;4.50;;
72095;SDS011;59968;51.084;16.748;2022-09-29T05:05:17;7.70;;;4.40;;
72095;SDS011;59968;51.084;16.748;2022-09-29T05:07:48;10.20;;;4.40;;
72095;SDS011;59968;51.084;16.748;2022-09-29T05:10:16;7.40;;;3.90;;
72095;SDS011;59968;51.084;16.748;2022-09-29T05:12:48;6.50;;;3.80;;
72095;SDS011;59968;51.084;16.748;2022-09-29T05:15:18;8.30;;;3.60;;
72095;SDS011;59968;51.084;16.748;2022-09-29T05:17:55;6.10;;;3.50;;
72095;SDS011;59968;51.084;16.748;2022-09-29T05:20:25;6.60;;;3.70;;
72095;SDS011;59968;51.084;16.748;2022-09-29T05:23:05;6.50;;;3.70;;
72095;SDS011;59968;51.084;16.748;2022-09-29T05:25:37;7.40;;;4.00;;
72095;SDS011;59968;51.084;16.748;2022-09-29T05:28:07;7.60;;;3.90;;
72095;SDS011;59968;51.084;16.748;2022-09-29T05:30:38;6.40;;;3.70;;
72095;SDS011;59968;51.084;16.748;2022-09-29T05:33:07;7.20;;;3.70;;
72095;SDS011;59968;51.084;16.748;2022-09-29T05:35:35;7.30;;;4.10;;
72095;SDS011;59968;51.084;16.748;2022-09-29T05:38:09;7.30;;;3.60;;
72095;SDS011;59968;51.084;16.748;2022-09-29T05:40:38;8.10;;;4.00;;
72095;SDS011;59968;51.084;16.748;2022-09-29T05:43:06;8.70;;;4.20;;
72095;SDS011;59968;51.084;16.748;2022-09-29T05:45:35;7.20;;;4.10;;
72095;SDS011;59968;51.084;16.748;2022-09-29T05:48:04;7.90;;;3.60;;
72095;SDS011;59968;51.084;16.748;2022-09-29T05:50:34;7.40;;;3.70;;
72095;SDS011;59968;51.084;16.748;2022-09-29T05:53:11;6.50;;;3.60;;
72095;SDS011;59968;51.084;16.748;2022-09-29T05:55:41;6.00;;;3.30;;
72095;SDS011;59968;51.084;16.748;2022-09-29T05:58:12;8.20;;;3.80;;
72095;SDS011;59968;51.084;16.748;2022-09-29T06:00:41;7.70;;;3.50;;
72095;SDS011;59968;51.084;16.748;2022-09-29T06:03:09;8.10;;;3.90;;
72095;SDS011;59968;51.084;16.748;2022-09-29T06:05:40;8.30;;;4.50;;
72095;SDS011;59968;51.084;16.748;2022-09-29T06:08:17;7.50;;;4.50;;
72095;SDS011;59968;51.084;16.748;2022-09-29T06:10:45;7.60;;;4.50;;
72095;SDS011;59968;51.084;16.748;2022-09-29T06:13:14;8.70;;;3.90;;
72095;SDS011;59968;51.084;16.748;2022-09-29T06:15:42;7.80;;;4.00;;
72095;SDS011;59968;51.084;16.748;2022-09-29T06:18:11;8.30;;;4.00;;
72095;SDS011;59968;51.084;16.748;2022-09-29T06:20:48;8.10;;;4.10;;
72095;SDS011;59968;51.084;16.748;2022-09-29T06:23:19;6.90;;;4.20;;
72095;SDS011;59968;51.084;16.748;2022-09-29T06:25:48;8.10;;;4.00;;
72095;SDS011;59968;51.084;16.748;2022-09-29T06:28:25;8.20;;;4.10;;
72095;SDS011;59968;51.084;16.748;2022-09-29T06:31:00;8.70;;;4.20;;
72095;SDS011;59968;51.084;16.748;2022-09-29T06:33:33;8.50;;;4.10;;
72095;SDS011;59968;51.084;16.748;2022-09-29T06:36:11;7.20;;;4.10;;
72095;SDS011;59968;51.084;16.748;2022-09-29T06:39:21;8.80;;;4.40;;
72095;SDS011;59968;51.084;16.748;2022-09-29T06:41:51;8.50;;;4.30;;
72095;SDS011;59968;51.084;16.748;2022-09-29T06:44:23;7.70;;;4.10;;
72095;SDS011;59968;51.084;16.748;2022-09-29T06:46:54;8.60;;;4.60;;
72095;SDS011;59968;51.084;16.748;2022-09-29T06:49:23;9.10;;;4.80;;
72095;SDS011;59968;51.084;16.748;2022-09-29T06:51:52;7.70;;;4.40;;
72095;SDS011;59968;51.084;16.748;2022-09-29T06:54:23;7.20;;;4.00;;
72095;SDS011;59968;51.084;16.748;2022-09-29T06:56:53;9.00;;;4.20;;
72095;SDS011;59968;51.084;16.748;2022-09-29T06:59:22;7.80;;;4.20;;
72095;SDS011;59968;51.084;16.748;2022-09-29T07:01:52;8.80;;;4.70;;
72095;SDS011;59968;51.084;16.748;2022-09-29T07:04:28;8.30;;;4.30;;
72095;SDS011;59968;51.084;16.748;2022-09-29T07:06:58;8.80;;;4.30;;
72095;SDS011;59968;51.084;16.748;2022-09-29T07:09:29;8.40;;;4.70;;
72095;SDS011;59968;51.084;16.748;2022-09-29T07:11:58;9.50;;;4.40;;
72095;SDS011;59968;51.084;16.748;2022-09-29T07:14:27;10.40;;;5.30;;
72095;SDS011;59968;51.084;16.748;2022-09-29T07:16:55;7.60;;;4.10;;
72095;SDS011;59968;51.084;16.748;2022-09-29T07:19:30;9.50;;;5.30;;
72095;SDS011;59968;51.084;16.748;2022-09-29T07:22:00;8.60;;;5.10;;
72095;SDS011;59968;51.084;16.748;2022-09-29T07:24:31;8.50;;;4.60;;
72095;SDS011;59968;51.084;16.748;2022-09-29T07:27:00;10.50;;;4.90;;
72095;SDS011;59968;51.084;16.748;2022-09-29T07:29:30;9.00;;;4.70;;
72095;SDS011;59968;51.084;16.748;2022-09-29T07:32:02;22.80;;;13.40;;
72095;SDS011;59968;51.084;16.748;2022-09-29T07:34:33;15.00;;;7.60;;
72095;SDS011;59968;51.084;16.748;2022-09-29T07:37:03;8.90;;;4.30;;
72095;SDS011;59968;51.084;16.748;2022-09-29T07:39:34;7.50;;;3.90;;
72095;SDS011;59968;51.084;16.748;2022-09-29T07:42:05;7.90;;;4.50;;
72095;SDS011;59968;51.084;16.748;2022-09-29T07:44:38;8.90;;;5.50;;
72095;SDS011;59968;51.084;16.748;2022-09-29T07:47:09;8.00;;;3.90;;
72095;SDS011;59968;51.084;16.748;2022-09-29T07:49:39;5.60;;;3.40;;
72095;SDS011;59968;51.084;16.748;2022-09-29T07:52:09;7.00;;;3.60;;
72095;SDS011;59968;51.084;16.748;2022-09-29T07:54:40;7.30;;;4.00;;
72095;SDS011;59968;51.084;16.748;2022-09-29T07:57:09;5.20;;;3.10;;
72095;SDS011;59968;51.084;16.748;2022-09-29T07:59:38;5.50;;;3.20;;
72095;SDS011;59968;51.084;16.748;2022-09-29T08:02:15;6.70;;;3.50;;
72095;SDS011;59968;51.084;16.748;2022-09-29T08:04:43;6.00;;;4.00;;
72095;SDS011;59968;51.084;16.748;2022-09-29T08:07:12;6.10;;;3.50;;
72095;SDS011;59968;51.084;16.748;2022-09-29T08:09:41;4.90;;;3.30;;
72095;SDS011;59968;51.084;16.748;2022-09-29T08:12:11;5.30;;;3.40;;
72095;SDS011;59968;51.084;16.748;2022-09-29T08:14:39;5.60;;;3.20;;
72095;SDS011;59968;51.084;16.748;2022-09-29T08:17:11;5.10;;;2.80;;
72095;SDS011;59968;51.084;16.748;2022-09-29T08:19:39;4.70;;;2.90;;
72095;SDS011;59968;51.084;16.748;2022-09-29T08:22:08;5.00;;;2.60;;
72095;SDS011;59968;51.084;16.748;2022-09-29T08:24:36;5.40;;;2.80;;
72095;SDS011;59968;51.084;16.748;2022-09-29T08:27:07;6.40;;;3.30;;
72095;SDS011;59968;51.084;16.748;2022-09-29T08:29:46;5.10;;;2.90;;
72095;SDS011;59968;51.084;16.748;2022-09-29T08:32:15;4.30;;;2.70;;
72095;SDS011;59968;51.084;16.748;2022-09-29T08:34:45;5.50;;;2.70;;
72095;SDS011;59968;51.084;16.748;2022-09-29T08:37:14;4.60;;;2.80;;
72095;SDS011;59968;51.084;16.748;2022-09-29T08:39:42;4.60;;;2.90;;
72095;SDS011;59968;51.084;16.748;2022-09-29T08:42:14;5.60;;;2.80;;
72095;SDS011;59968;51.084;16.748;2022-09-29T08:44:49;5.80;;;2.80;;
72095;SDS011;59968;51.084;16.748;2022-09-29T08:47:24;4.20;;;2.70;;
72095;SDS011;59968;51.084;16.748;2022-09-29T08:50:27;3.30;;;2.10;;
72095;SDS011;59968;51.084;16.748;2022-09-29T08:53:01;3.30;;;2.20;;
72095;SDS011;59968;51.084;16.748;2022-09-29T08:56:00;4.30;;;2.30;;
72095;SDS011;59968;51.084;16.748;2022-09-29T08:58:30;4.70;;;2.20;;
72095;SDS011;59968;51.084;16.748;2022-09-29T09:01:06;3.10;;;1.90;;
72095;SDS011;59968;51.084;16.748;2022-09-29T09:09:40;3.70;;;2.40;;
72095;SDS011;59968;51.084;16.748;2022-09-29T09:12:16;3.50;;;2.20;;
72095;SDS011;59968;51.084;16.748;2022-09-29T09:22:44;3.40;;;2.30;;
72095;SDS011;59968;51.084;16.748;2022-09-29T09:25:19;2.90;;;1.90;;
72095;SDS011;59968;51.084;16.748;2022-09-29T09:27:58;3.70;;;2.10;;
72095;SDS011;59968;51.084;16.748;2022-09-29T09:31:00;3.40;;;2.20;;
72095;SDS011;59968;51.084;16.748;2022-09-29T09:33:40;2.70;;;1.50;;
72095;SDS011;59968;51.084;16.748;2022-09-29T09:36:30;3.00;;;2.00;;
72095;SDS011;59968;51.084;16.748;2022-09-29T09:42:34;4.20;;;1.80;;
72095;SDS011;59968;51.084;16.748;2022-09-29T09:47:47;3.60;;;1.90;;
72095;SDS011;59968;51.084;16.748;2022-09-29T09:50:22;3.20;;;1.50;;
72095;SDS011;59968;51.084;16.748;2022-09-29T09:52:56;2.80;;;1.90;;
72095;SDS011;59968;51.084;16.748;2022-09-29T09:55:28;1.90;;;1.50;;
72095;SDS011;59968;51.084;16.748;2022-09-29T09:58:25;2.20;;;1.80;;
72095;SDS011;59968;51.084;16.748;2022-09-29T10:01:01;2.10;;;1.40;;
72095;SDS011;59968;51.084;16.748;2022-09-29T10:03:34;2.90;;;1.70;;
72095;SDS011;59968;51.084;16.748;2022-09-29T10:06:07;2.30;;;1.60;;
72095;SDS011;59968;51.084;16.748;2022-09-29T10:08:39;5.00;;;2.30;;
72095;SDS011;59968;51.084;16.748;2022-09-29T10:11:30;2.20;;;1.40;;
72095;SDS011;59968;51.084;16.748;2022-09-29T10:14:00;2.50;;;1.60;;
72095;SDS011;59968;51.084;16.748;2022-09-29T10:16:39;2.30;;;1.70;;
72095;SDS011;59968;51.084;16.748;2022-09-29T10:19:10;2.60;;;1.70;;
72095;SDS011;59968;51.084;16.748;2022-09-29T10:21:41;2.60;;;1.70;;
72095;SDS011;59968;51.084;16.748;2022-09-29T10:26:55;2.60;;;1.90;;
72095;SDS011;59968;51.084;16.748;2022-09-29T10:32:12;2.90;;;1.90;;
72095;SDS011;59968;51.084;16.748;2022-09-29T10:34:43;2.90;;;2.00;;
72095;SDS011;59968;51.084;16.748;2022-09-29T10:37:20;3.20;;;1.70;;
72095;SDS011;59968;51.084;16.748;2022-09-29T10:40:00;3.40;;;2.00;;
72095;SDS011;59968;51.084;16.748;2022-09-29T10:42:36;2.50;;;1.80;;
72095;SDS011;59968;51.084;16.748;2022-09-29T10:47:34;2.30;;;1.70;;
72095;SDS011;59968;51.084;16.748;2022-09-29T10:52:51;3.30;;;1.70;;
72095;SDS011;59968;51.084;16.748;2022-09-29T10:55:25;2.50;;;1.70;;
72095;SDS011;59968;51.084;16.748;2022-09-29T10:57:56;2.10;;;1.70;;
72095;SDS011;59968;51.084;16.748;2022-09-29T11:05:52;2.60;;;1.50;;
72095;SDS011;59968;51.084;16.748;2022-09-29T11:08:52;3.20;;;1.80;;
72095;SDS011;59968;51.084;16.748;2022-09-29T11:11:29;2.60;;;1.90;;
72095;SDS011;59968;51.084;16.748;2022-09-29T11:14:00;3.20;;;1.80;;
72095;SDS011;59968;51.084;16.748;2022-09-29T11:16:33;3.00;;;1.60;;
72095;SDS011;59968;51.084;16.748;2022-09-29T11:19:10;3.50;;;2.00;;
72095;SDS011;59968;51.084;16.748;2022-09-29T11:30:13;2.10;;;1.10;;
72095;SDS011;59968;51.084;16.748;2022-09-29T11:33:00;2.10;;;1.30;;
72095;SDS011;59968;51.084;16.748;2022-09-29T11:47:05;2.20;;;1.80;;
72095;SDS011;59968;51.084;16.748;2022-09-29T12:01:47;2.00;;;1.70;;
72095;SDS011;59968;51.084;16.748;2022-09-29T12:15:49;3.50;;;1.60;;
72095;SDS011;59968;51.084;16.748;2022-09-29T12:21:22;2.00;;;1.60;;
72095;SDS011;59968;51.084;16.748;2022-09-29T12:24:01;2.60;;;1.50;;
72095;SDS011;59968;51.084;16.748;2022-09-29T12:26:34;2.40;;;1.50;;
72095;SDS011;59968;51.084;16.748;2022-09-29T12:29:04;2.70;;;1.90;;
72095;SDS011;59968;51.084;16.748;2022-09-29T12:31:45;2.50;;;1.60;;
72095;SDS011;59968;51.084;16.748;2022-09-29T12:34:17;2.20;;;1.40;;
72095;SDS011;59968;51.084;16.748;2022-09-29T12:38:00;1.90;;;1.50;;
72095;SDS011;59968;51.084;16.748;2022-09-29T12:43:07;1.80;;;1.50;;
72095;SDS011;59968;51.084;16.748;2022-09-29T12:49:08;2.10;;;1.30;;
72095;SDS011;59968;51.084;16.748;2022-09-29T12:51:31;2.80;;;1.70;;
72095;SDS011;59968;51.084;16.748;2022-09-29T12:54:24;2.70;;;1.50;;
72095;SDS011;59968;51.084;16.748;2022-09-29T12:57:04;2.50;;;1.80;;
72095;SDS011;59968;51.084;16.748;2022-09-29T13:27:59;1.70;;;1.30;;
72095;SDS011;59968;51.084;16.748;2022-09-29T13:30:29;1.60;;;1.20;;
72095;SDS011;59968;51.084;16.748;2022-09-29T13:37:48;2.50;;;1.60;;
72095;SDS011;59968;51.084;16.748;2022-09-29T13:40:20;2.10;;;1.40;;
72095;SDS011;59968;51.084;16.748;2022-09-29T13:42:53;1.90;;;1.10;;
72095;SDS011;59968;51.084;16.748;2022-09-29T13:47:58;1.70;;;1.30;;
72095;SDS011;59968;51.084;16.748;2022-09-29T13:58:25;1.80;;;1.30;;
72095;SDS011;59968;51.084;16.748;2022-09-29T14:00:55;2.60;;;1.60;;
72095;SDS011;59968;51.084;16.748;2022-09-29T14:03:31;2.60;;;1.40;;
72095;SDS011;59968;51.084;16.748;2022-09-29T14:08:59;2.30;;;1.40;;
72095;SDS011;59968;51.084;16.748;2022-09-29T14:11:35;2.20;;;1.40;;
72095;SDS011;59968;51.084;16.748;2022-09-29T14:14:29;2.80;;;1.60;;
72095;SDS011;59968;51.084;16.748;2022-09-29T14:17:43;2.30;;;1.60;;
72095;SDS011;59968;51.084;16.748;2022-09-29T14:20:01;2.60;;;1.50;;
72095;SDS011;59968;51.084;16.748;2022-09-29T14:27:38;2.00;;;1.30;;
72095;SDS011;59968;51.084;16.748;2022-09-29T14:30:17;2.80;;;1.50;;
72095;SDS011;59968;51.084;16.748;2022-09-29T14:32:54;2.40;;;1.20;;
72095;SDS011;59968;51.084;16.748;2022-09-29T14:35:32;2.20;;;1.20;;
72095;SDS011;59968;51.084;16.748;2022-09-29T14:40:33;3.70;;;1.30;;
72095;SDS011;59968;51.084;16.748;2022-09-29T14:43:03;3.80;;;1.30;;
72095;SDS011;59968;51.084;16.748;2022-09-29T14:52:54;1.50;;;1.30;;
72095;SDS011;59968;51.084;16.748;2022-09-29T14:55:35;1.40;;;1.30;;
72095;SDS011;59968;51.084;16.748;2022-09-29T15:01:26;1.80;;;1.30;;
72095;SDS011;59968;51.084;16.748;2022-09-29T15:03:56;2.80;;;1.60;;
72095;SDS011;59968;51.084;16.748;2022-09-29T15:06:32;2.50;;;1.90;;
72095;SDS011;59968;51.084;16.748;2022-09-29T15:09:15;2.30;;;1.60;;
72095;SDS011;59968;51.084;16.748;2022-09-29T15:11:51;2.90;;;1.70;;
72095;SDS011;59968;51.084;16.748;2022-09-29T15:14:30;3.40;;;1.40;;
72095;SDS011;59968;51.084;16.748;2022-09-29T15:25:55;2.00;;;1.30;;
72095;SDS011;59968;51.084;16.748;2022-09-29T15:28:31;2.10;;;1.40;;
72095;SDS011;59968;51.084;16.748;2022-09-29T15:31:05;2.90;;;1.20;;
72095;SDS011;59968;51.084;16.748;2022-09-29T15:33:39;1.90;;;1.30;;
72095;SDS011;59968;51.084;16.748;2022-09-29T15:38:53;2.60;;;1.50;;
72095;SDS011;59968;51.084;16.748;2022-09-29T15:41:25;3.70;;;1.60;;
72095;SDS011;59968;51.084;16.748;2022-09-29T15:44:12;3.20;;;1.70;;
72095;SDS011;59968;51.084;16.748;2022-09-29T15:46:49;3.10;;;1.40;;
72095;SDS011;59968;51.084;16.748;2022-09-29T15:49:19;3.00;;;1.50;;
72095;SDS011;59968;51.084;16.748;2022-09-29T15:51:56;3.20;;;1.50;;
72095;SDS011;59968;51.084;16.748;2022-09-29T15:54:40;3.70;;;1.50;;
72095;SDS011;59968;51.084;16.748;2022-09-29T16:02:51;3.50;;;1.50;;
72095;SDS011;59968;51.084;16.748;2022-09-29T16:05:34;3.30;;;1.70;;
72095;SDS011;59968;51.084;16.748;2022-09-29T16:10:53;2.80;;;1.90;;
72095;SDS011;59968;51.084;16.748;2022-09-29T16:13:28;2.50;;;1.70;;
72095;SDS011;59968;51.084;16.748;2022-09-29T16:16:05;2.50;;;1.70;;
72095;SDS011;59968;51.084;16.748;2022-09-29T16:18:39;3.20;;;1.90;;
72095;SDS011;59968;51.084;16.748;2022-09-29T16:21:11;2.80;;;1.60;;
72095;SDS011;59968;51.084;16.748;2022-09-29T16:23:49;2.60;;;1.90;;
72095;SDS011;59968;51.084;16.748;2022-09-29T16:31:37;4.80;;;1.70;;
72095;SDS011;59968;51.084;16.748;2022-09-29T16:37:04;2.70;;;1.90;;
72095;SDS011;59968;51.084;16.748;2022-09-29T16:39:58;2.80;;;2.10;;
72095;SDS011;59968;51.084;16.748;2022-09-29T16:42:27;4.00;;;1.80;;
72095;SDS011;59968;51.084;16.748;2022-09-29T16:44:56;4.00;;;2.40;;
72095;SDS011;59968;51.084;16.748;2022-09-29T16:47:27;5.90;;;2.40;;
72095;SDS011;59968;51.084;16.748;2022-09-29T16:50:12;5.20;;;2.60;;
72095;SDS011;59968;51.084;16.748;2022-09-29T16:52:48;5.90;;;2.90;;
72095;SDS011;59968;51.084;16.748;2022-09-29T16:58:04;5.70;;;2.70;;
72095;SDS011;59968;51.084;16.748;2022-09-29T17:00:40;5.10;;;2.90;;
72095;SDS011;59968;51.084;16.748;2022-09-29T17:03:14;5.80;;;3.00;;
72095;SDS011;59968;51.084;16.748;2022-09-29T17:05:46;6.50;;;3.50;;
72095;SDS011;59968;51.084;16.748;2022-09-29T17:10:54;7.70;;;3.80;;
72095;SDS011;59968;51.084;16.748;2022-09-29T17:13:37;10.50;;;4.80;;
72095;SDS011;59968;51.084;16.748;2022-09-29T17:16:07;9.10;;;4.80;;
72095;SDS011;59968;51.084;16.748;2022-09-29T17:18:37;9.00;;;5.50;;
72095;SDS011;59968;51.084;16.748;2022-09-29T17:21:12;9.60;;;5.50;;
72095;SDS011;59968;51.084;16.748;2022-09-29T17:23:40;10.90;;;6.20;;
72095;SDS011;59968;51.084;16.748;2022-09-29T17:26:21;19.20;;;12.00;;
72095;SDS011;59968;51.084;16.748;2022-09-29T17:29:16;16.40;;;10.40;;
72095;SDS011;59968;51.084;16.748;2022-09-29T17:31:48;13.50;;;8.20;;
72095;SDS011;59968;51.084;16.748;2022-09-29T17:34:17;16.10;;;8.50;;
72095;SDS011;59968;51.084;16.748;2022-09-29T17:36:56;24.60;;;12.30;;
72095;SDS011;59968;51.084;16.748;2022-09-29T17:39:27;21.80;;;11.10;;
72095;SDS011;59968;51.084;16.748;2022-09-29T17:41:57;24.00;;;12.20;;
72095;SDS011;59968;51.084;16.748;2022-09-29T17:44:27;21.00;;;11.50;;
72095;SDS011;59968;51.084;16.748;2022-09-29T17:46:57;11.30;;;6.60;;
72095;SDS011;59968;51.084;16.748;2022-09-29T17:49:47;10.20;;;6.00;;
72095;SDS011;59968;51.084;16.748;2022-09-29T17:52:20;9.60;;;5.00;;
72095;SDS011;59968;51.084;16.748;2022-09-29T17:54:50;6.70;;;4.00;;
72095;SDS011;59968;51.084;16.748;2022-09-29T17:57:24;6.10;;;3.40;;
72095;SDS011;59968;51.084;16.748;2022-09-29T17:59:57;7.20;;;3.50;;
72095;SDS011;59968;51.084;16.748;2022-09-29T18:02:37;8.30;;;3.70;;
72095;SDS011;59968;51.084;16.748;2022-09-29T18:05:06;6.70;;;3.50;;
72095;SDS011;59968;51.084;16.748;2022-09-29T18:07:38;6.20;;;3.10;;
72095;SDS011;59968;51.084;16.748;2022-09-29T18:10:24;6.60;;;3.20;;
72095;SDS011;59968;51.084;16.748;2022-09-29T18:12:55;7.30;;;3.20;;
72095;SDS011;59968;51.084;16.748;2022-09-29T18:15:26;8.40;;;3.70;;
72095;SDS011;59968;51.084;16.748;2022-09-29T18:17:58;8.50;;;3.90;;
72095;SDS011;59968;51.084;16.748;2022-09-29T18:20:31;11.90;;;5.10;;
72095;SDS011;59968;51.084;16.748;2022-09-29T18:23:10;10.30;;;5.20;;
72095;SDS011;59968;51.084;16.748;2022-09-29T18:25:41;10.70;;;5.30;;
72095;SDS011;59968;51.084;16.748;2022-09-29T18:28:21;9.20;;;4.90;;
72095;SDS011;59968;51.084;16.748;2022-09-29T18:31:06;8.70;;;5.30;;
72095;SDS011;59968;51.084;16.748;2022-09-29T18:33:45;7.40;;;5.10;;
72095;SDS011;59968;51.084;16.748;2022-09-29T18:36:15;9.60;;;5.70;;
72095;SDS011;59968;51.084;16.748;2022-09-29T18:38:50;8.40;;;4.80;;
72095;SDS011;59968;51.084;16.748;2022-09-29T18:41:20;7.90;;;4.70;;
72095;SDS011;59968;51.084;16.748;2022-09-29T18:43:52;9.10;;;5.30;;
72095;SDS011;59968;51.084;16.748;2022-09-29T18:46:26;12.40;;;5.70;;
72095;SDS011;59968;51.084;16.748;2022-09-29T18:48:58;12.00;;;5.90;;
72095;SDS011;59968;51.084;16.748;2022-09-29T18:51:32;11.50;;;5.70;;